sensor_id;sensor_type;location;lat;lon;timestamp;pressure;altitude;pressure_sealevel;temperature
62706;BMP280;51050;51.784;9.372;2022-09-02T00:00:42;100849.03;;;13.96
62706;BMP280;51050;51.784;9.372;2022-09-02T00:03:07;100846.25;;;14.01
62706;BMP280;51050;51.784;9.372;2022-09-02T00:05:33;100853.06;;;14.04
62706;BMP280;51050;51.784;9.372;2022-09-02T00:07:58;100840.59;;;14.12
62706;BMP280;51050;51.784;9.372;2022-09-02T00:10:23;100847.47;;;13.90
62706;BMP280;51050;51.784;9.372;2022-09-02T00:12:48;100842.22;;;13.94
62706;BMP280;51050;51.784;9.372;2022-09-02T00:15:13;100842.28;;;14.08
62706;BMP280;51050;51.784;9.372;2022-09-02T00:17:38;100845.28;;;14.11
62706;BMP280;51050;51.784;9.372;2022-09-02T00:20:04;100836.41;;;14.14
62706;BMP280;51050;51.784;9.372;2022-09-02T00:22:29;100842.28;;;14.08
62706;BMP280;51050;51.784;9.372;2022-09-02T00:24:54;100837.69;;;14.03
62706;BMP280;51050;51.784;9.372;2022-09-02T00:27:19;100836.81;;;13.84
62706;BMP280;51050;51.784;9.372;2022-09-02T00:29:44;100828.66;;;13.97
62706;BMP280;51050;51.784;9.372;2022-09-02T00:32:10;100831.03;;;13.85
62706;BMP280;51050;51.784;9.372;2022-09-02T00:34:35;100829.84;;;13.91
62706;BMP280;51050;51.784;9.372;2022-09-02T00:37:00;100828.56;;;13.84
62706;BMP280;51050;51.784;9.372;2022-09-02T00:39:25;100829.03;;;13.91
62706;BMP280;51050;51.784;9.372;2022-09-02T00:41:50;100827.75;;;13.83
62706;BMP280;51050;51.784;9.372;2022-09-02T00:44:17;100821.13;;;13.84
62706;BMP280;51050;51.784;9.372;2022-09-02T00:46:43;100820.97;;;13.76
62706;BMP280;51050;51.784;9.372;2022-09-02T00:52:08;100820.72;;;13.48
62706;BMP280;51050;51.784;9.372;2022-09-02T00:54:38;100827.59;;;13.51
62706;BMP280;51050;51.784;9.372;2022-09-02T00:57:06;100831.44;;;13.50
62706;BMP280;51050;51.784;9.372;2022-09-02T00:59:42;100829.09;;;13.38
62706;BMP280;51050;51.784;9.372;2022-09-02T01:02:10;100820.16;;;13.51
62706;BMP280;51050;51.784;9.372;2022-09-02T01:04:35;100817.34;;;13.56
62706;BMP280;51050;51.784;9.372;2022-09-02T01:07:00;100822.13;;;13.46
62706;BMP280;51050;51.784;9.372;2022-09-02T01:09:27;100820.13;;;13.27
62706;BMP280;51050;51.784;9.372;2022-09-02T01:11:52;100820.66;;;13.30
62706;BMP280;51050;51.784;9.372;2022-09-02T01:14:19;100808.28;;;13.27
62706;BMP280;51050;51.784;9.372;2022-09-02T01:16:45;100817.72;;;13.21
62706;BMP280;51050;51.784;9.372;2022-09-02T01:19:15;100813.09;;;13.16
62706;BMP280;51050;51.784;9.372;2022-09-02T01:21:45;100812.59;;;13.09
62706;BMP280;51050;51.784;9.372;2022-09-02T01:24:10;100813.38;;;13.15
62706;BMP280;51050;51.784;9.372;2022-09-02T01:26:36;100808.19;;;13.13
62706;BMP280;51050;51.784;9.372;2022-09-02T01:29:01;100809.66;;;13.01
62706;BMP280;51050;51.784;9.372;2022-09-02T01:31:26;100810.69;;;12.76
62706;BMP280;51050;51.784;9.372;2022-09-02T01:33:51;100809.69;;;12.96
62706;BMP280;51050;51.784;9.372;2022-09-02T01:36:16;100811.47;;;13.10
62706;BMP280;51050;51.784;9.372;2022-09-02T01:38:41;100807.94;;;13.05
62706;BMP280;51050;51.784;9.372;2022-09-02T01:41:06;100808.22;;;13.03
62706;BMP280;51050;51.784;9.372;2022-09-02T01:43:32;100800.97;;;12.88
62706;BMP280;51050;51.784;9.372;2022-09-02T01:45:57;100796.72;;;12.72
62706;BMP280;51050;51.784;9.372;2022-09-02T01:48:22;100800.31;;;12.68
62706;BMP280;51050;51.784;9.372;2022-09-02T01:50:50;100796.03;;;12.85
62706;BMP280;51050;51.784;9.372;2022-09-02T01:53:15;100791.91;;;12.88
62706;BMP280;51050;51.784;9.372;2022-09-02T01:55:40;100788.66;;;12.81
62706;BMP280;51050;51.784;9.372;2022-09-02T01:58:05;100785.97;;;12.76
62706;BMP280;51050;51.784;9.372;2022-09-02T02:00:31;100789.22;;;12.78
62706;BMP280;51050;51.784;9.372;2022-09-02T02:02:56;100784.56;;;12.78
62706;BMP280;51050;51.784;9.372;2022-09-02T02:05:21;100788.19;;;12.74
62706;BMP280;51050;51.784;9.372;2022-09-02T02:07:46;100779.47;;;12.67
62706;BMP280;51050;51.784;9.372;2022-09-02T02:10:13;100783.94;;;12.58
62706;BMP280;51050;51.784;9.372;2022-09-02T02:12:38;100788.34;;;12.54
62706;BMP280;51050;51.784;9.372;2022-09-02T02:15:05;100789.00;;;12.40
62706;BMP280;51050;51.784;9.372;2022-09-02T02:17:30;100784.00;;;12.47
62706;BMP280;51050;51.784;9.372;2022-09-02T02:19:55;100790.31;;;12.48
62706;BMP280;51050;51.784;9.372;2022-09-02T02:22:20;100786.56;;;12.34
62706;BMP280;51050;51.784;9.372;2022-09-02T02:24:46;100783.56;;;12.30
62706;BMP280;51050;51.784;9.372;2022-09-02T02:27:11;100786.06;;;12.27
62706;BMP280;51050;51.784;9.372;2022-09-02T02:29:36;100781.16;;;12.19
62706;BMP280;51050;51.784;9.372;2022-09-02T02:32:02;100786.88;;;12.27
62706;BMP280;51050;51.784;9.372;2022-09-02T02:34:27;100780.13;;;12.15
62706;BMP280;51050;51.784;9.372;2022-09-02T02:36:52;100785.16;;;11.97
62706;BMP280;51050;51.784;9.372;2022-09-02T02:39:17;100772.72;;;12.10
62706;BMP280;51050;51.784;9.372;2022-09-02T02:41:42;100776.78;;;12.18
62706;BMP280;51050;51.784;9.372;2022-09-02T02:44:08;100773.88;;;12.04
62706;BMP280;51050;51.784;9.372;2022-09-02T02:46:34;100777.75;;;11.98
62706;BMP280;51050;51.784;9.372;2022-09-02T02:49:00;100782.50;;;11.67
62706;BMP280;51050;51.784;9.372;2022-09-02T02:51:25;100779.44;;;11.84
62706;BMP280;51050;51.784;9.372;2022-09-02T02:53:50;100772.41;;;11.62
62706;BMP280;51050;51.784;9.372;2022-09-02T02:56:15;100773.81;;;11.55
62706;BMP280;51050;51.784;9.372;2022-09-02T02:58:41;100772.91;;;11.80
62706;BMP280;51050;51.784;9.372;2022-09-02T03:01:06;100766.56;;;11.84
62706;BMP280;51050;51.784;9.372;2022-09-02T03:03:31;100774.00;;;11.73
62706;BMP280;51050;51.784;9.372;2022-09-02T03:05:57;100774.28;;;11.72
62706;BMP280;51050;51.784;9.372;2022-09-02T03:08:22;100777.03;;;11.77
62706;BMP280;51050;51.784;9.372;2022-09-02T03:10:49;100774.56;;;11.75
62706;BMP280;51050;51.784;9.372;2022-09-02T03:13:18;100772.91;;;11.69
62706;BMP280;51050;51.784;9.372;2022-09-02T03:15:45;100774.28;;;11.67
62706;BMP280;51050;51.784;9.372;2022-09-02T03:18:10;100774.63;;;11.50
62706;BMP280;51050;51.784;9.372;2022-09-02T03:20:35;100772.47;;;11.42
62706;BMP280;51050;51.784;9.372;2022-09-02T03:23:00;100776.56;;;11.45
62706;BMP280;51050;51.784;9.372;2022-09-02T03:25:28;100774.66;;;11.45
62706;BMP280;51050;51.784;9.372;2022-09-02T03:27:54;100779.28;;;11.50
62706;BMP280;51050;51.784;9.372;2022-09-02T03:30:21;100780.09;;;11.55
62706;BMP280;51050;51.784;9.372;2022-09-02T03:32:46;100773.81;;;11.55
62706;BMP280;51050;51.784;9.372;2022-09-02T03:35:12;100774.13;;;11.33
62706;BMP280;51050;51.784;9.372;2022-09-02T03:37:38;100768.97;;;11.16
62706;BMP280;51050;51.784;9.372;2022-09-02T03:40:04;100770.34;;;11.19
62706;BMP280;51050;51.784;9.372;2022-09-02T03:42:30;100769.75;;;11.37
62706;BMP280;51050;51.784;9.372;2022-09-02T03:44:55;100765.66;;;11.34
62706;BMP280;51050;51.784;9.372;2022-09-02T03:47:20;100774.13;;;11.38
62706;BMP280;51050;51.784;9.372;2022-09-02T03:49:46;100775.78;;;11.34
62706;BMP280;51050;51.784;9.372;2022-09-02T03:52:11;100768.13;;;11.31
62706;BMP280;51050;51.784;9.372;2022-09-02T03:54:37;100764.59;;;11.20
62706;BMP280;51050;51.784;9.372;2022-09-02T03:57:02;100766.22;;;11.26
62706;BMP280;51050;51.784;9.372;2022-09-02T03:59:27;100767.31;;;11.30
62706;BMP280;51050;51.784;9.372;2022-09-02T04:01:52;100769.22;;;11.25
62706;BMP280;51050;51.784;9.372;2022-09-02T04:04:18;100754.97;;;11.28
62706;BMP280;51050;51.784;9.372;2022-09-02T04:06:43;100769.56;;;11.13
62706;BMP280;51050;51.784;9.372;2022-09-02T04:09:09;100779.94;;;11.16
62706;BMP280;51050;51.784;9.372;2022-09-02T04:11:34;100766.50;;;11.15
62706;BMP280;51050;51.784;9.372;2022-09-02T04:13:59;100762.75;;;10.75
62706;BMP280;51050;51.784;9.372;2022-09-02T04:16:24;100771.47;;;10.97
62706;BMP280;51050;51.784;9.372;2022-09-02T04:18:53;100768.47;;;11.04
62706;BMP280;51050;51.784;9.372;2022-09-02T04:21:18;100768.75;;;11.03
62706;BMP280;51050;51.784;9.372;2022-09-02T04:23:44;100764.66;;;10.90
62706;BMP280;51050;51.784;9.372;2022-09-02T04:26:10;100759.75;;;10.77
62706;BMP280;51050;51.784;9.372;2022-09-02T04:28:35;100765.25;;;10.72
62706;BMP280;51050;51.784;9.372;2022-09-02T04:31:04;100766.03;;;10.67
62706;BMP280;51050;51.784;9.372;2022-09-02T04:33:30;100766.28;;;10.81
62706;BMP280;51050;51.784;9.372;2022-09-02T04:35:55;100763.81;;;10.89
62706;BMP280;51050;51.784;9.372;2022-09-02T04:38:20;100760.00;;;10.75
62706;BMP280;51050;51.784;9.372;2022-09-02T04:40:45;100763.84;;;10.59
62706;BMP280;51050;51.784;9.372;2022-09-02T04:43:11;100763.03;;;10.74
62706;BMP280;51050;51.784;9.372;2022-09-02T04:45:40;100762.47;;;10.87
62706;BMP280;51050;51.784;9.372;2022-09-02T04:48:06;100760.84;;;10.86
62706;BMP280;51050;51.784;9.372;2022-09-02T04:50:31;100760.00;;;10.65
62706;BMP280;51050;51.784;9.372;2022-09-02T04:52:56;100764.69;;;10.70
62706;BMP280;51050;51.784;9.372;2022-09-02T04:55:22;100758.09;;;10.76
62706;BMP280;51050;51.784;9.372;2022-09-02T04:57:47;100762.75;;;10.65
62706;BMP280;51050;51.784;9.372;2022-09-02T05:00:12;100768.22;;;10.75
62706;BMP280;51050;51.784;9.372;2022-09-02T05:02:37;100758.13;;;10.60
62706;BMP280;51050;51.784;9.372;2022-09-02T05:05:03;100756.75;;;10.58
62706;BMP280;51050;51.784;9.372;2022-09-02T05:07:28;100769.59;;;10.68
62706;BMP280;51050;51.784;9.372;2022-09-02T05:09:56;100759.22;;;10.80
62706;BMP280;51050;51.784;9.372;2022-09-02T05:12:22;100759.75;;;10.67
62706;BMP280;51050;51.784;9.372;2022-09-02T05:14:51;100765.78;;;10.79
62706;BMP280;51050;51.784;9.372;2022-09-02T05:17:17;100763.84;;;10.84
62706;BMP280;51050;51.784;9.372;2022-09-02T05:19:42;100761.94;;;10.85
62706;BMP280;51050;51.784;9.372;2022-09-02T05:22:08;100763.28;;;10.92
62706;BMP280;51050;51.784;9.372;2022-09-02T05:24:34;100750.97;;;10.95
62706;BMP280;51050;51.784;9.372;2022-09-02T05:26:59;100757.78;;;10.97
62706;BMP280;51050;51.784;9.372;2022-09-02T05:29:24;100749.56;;;11.03
62706;BMP280;51050;51.784;9.372;2022-09-02T05:31:50;100751.19;;;11.09
62706;BMP280;51050;51.784;9.372;2022-09-02T05:34:16;100749.56;;;11.03
62706;BMP280;51050;51.784;9.372;2022-09-02T05:36:42;100742.69;;;11.15
62706;BMP280;51050;51.784;9.372;2022-09-02T05:39:07;100747.88;;;11.22
62706;BMP280;51050;51.784;9.372;2022-09-02T05:41:33;100745.38;;;11.25
62706;BMP280;51050;51.784;9.372;2022-09-02T05:43:59;100745.41;;;11.30
62706;BMP280;51050;51.784;9.372;2022-09-02T05:46:25;100748.09;;;11.35
62706;BMP280;51050;51.784;9.372;2022-09-02T05:48:51;100748.09;;;11.35
62706;BMP280;51050;51.784;9.372;2022-09-02T05:51:34;100742.88;;;11.44
62706;BMP280;51050;51.784;9.372;2022-09-02T05:54:02;100740.09;;;11.54
62706;BMP280;51050;51.784;9.372;2022-09-02T05:56:27;100741.47;;;11.52
62706;BMP280;51050;51.784;9.372;2022-09-02T05:58:55;100736.22;;;11.60
62706;BMP280;51050;51.784;9.372;2022-09-02T06:01:22;100734.53;;;11.69
62706;BMP280;51050;51.784;9.372;2022-09-02T06:03:47;100743.56;;;11.75
62706;BMP280;51050;51.784;9.372;2022-09-02T06:06:14;100735.06;;;11.82
62706;BMP280;51050;51.784;9.372;2022-09-02T06:08:39;100734.19;;;11.86
62706;BMP280;51050;51.784;9.372;2022-09-02T06:11:06;100736.38;;;11.89
62706;BMP280;51050;51.784;9.372;2022-09-02T06:13:33;100732.81;;;11.89
62706;BMP280;51050;51.784;9.372;2022-09-02T06:15:58;100731.94;;;11.98
62706;BMP280;51050;51.784;9.372;2022-09-02T06:18:26;100725.28;;;12.04
62706;BMP280;51050;51.784;9.372;2022-09-02T06:20:51;100729.63;;;12.10
62706;BMP280;51050;51.784;9.372;2022-09-02T06:23:16;100733.97;;;12.17
62706;BMP280;51050;51.784;9.372;2022-09-02T06:25:42;100732.31;;;12.21
62706;BMP280;51050;51.784;9.372;2022-09-02T06:28:08;100737.75;;;12.26
62706;BMP280;51050;51.784;9.372;2022-09-02T06:30:34;100725.41;;;12.28
62706;BMP280;51050;51.784;9.372;2022-09-02T06:33:01;100733.41;;;12.25
62706;BMP280;51050;51.784;9.372;2022-09-02T06:35:27;100735.31;;;12.24
62706;BMP280;51050;51.784;9.372;2022-09-02T06:37:53;100730.13;;;12.23
62706;BMP280;51050;51.784;9.372;2022-09-02T06:40:18;100740.81;;;12.24
62706;BMP280;51050;51.784;9.372;2022-09-02T06:42:43;100735.00;;;12.26
62706;BMP280;51050;51.784;9.372;2022-09-02T06:45:08;100729.84;;;12.24
62706;BMP280;51050;51.784;9.372;2022-09-02T06:47:34;100736.88;;;12.35
62706;BMP280;51050;51.784;9.372;2022-09-02T06:50:00;100730.47;;;12.45
62706;BMP280;51050;51.784;9.372;2022-09-02T06:52:25;100732.06;;;12.51
62706;BMP280;51050;51.784;9.372;2022-09-02T06:54:51;100732.56;;;12.58
62706;BMP280;51050;51.784;9.372;2022-09-02T06:57:18;100736.09;;;12.64
62706;BMP280;51050;51.784;9.372;2022-09-02T06:59:43;100731.63;;;12.68
62706;BMP280;51050;51.784;9.372;2022-09-02T07:02:08;100726.34;;;12.76
62706;BMP280;51050;51.784;9.372;2022-09-02T07:04:34;100725.72;;;12.84
62706;BMP280;51050;51.784;9.372;2022-09-02T07:07:18;100724.84;;;12.89
62706;BMP280;51050;51.784;9.372;2022-09-02T07:09:43;100722.34;;;12.93
62706;BMP280;51050;51.784;9.372;2022-09-02T07:12:08;100712.94;;;12.99
62706;BMP280;51050;51.784;9.372;2022-09-02T07:14:37;100716.44;;;13.04
62706;BMP280;51050;51.784;9.372;2022-09-02T07:17:02;100721.28;;;13.12
62706;BMP280;51050;51.784;9.372;2022-09-02T07:19:28;100716.09;;;13.16
62706;BMP280;51050;51.784;9.372;2022-09-02T07:21:53;100716.63;;;13.18
62706;BMP280;51050;51.784;9.372;2022-09-02T07:24:18;100716.84;;;13.21
62706;BMP280;51050;51.784;9.372;2022-09-02T07:26:44;100716.19;;;13.30
62706;BMP280;51050;51.784;9.372;2022-09-02T07:29:09;100714.22;;;13.35
62706;BMP280;51050;51.784;9.372;2022-09-02T07:31:35;100718.28;;;13.38
62706;BMP280;51050;51.784;9.372;2022-09-02T07:34:00;100715.50;;;13.43
62706;BMP280;51050;51.784;9.372;2022-09-02T07:36:25;100713.25;;;13.45
62706;BMP280;51050;51.784;9.372;2022-09-02T07:38:51;100712.91;;;13.51
62706;BMP280;51050;51.784;9.372;2022-09-02T07:41:17;100716.94;;;13.59
62706;BMP280;51050;51.784;9.372;2022-09-02T07:43:43;100712.25;;;13.59
62706;BMP280;51050;51.784;9.372;2022-09-02T07:46:08;100708.00;;;13.67
62706;BMP280;51050;51.784;9.372;2022-09-02T07:48:34;100710.69;;;13.72
62706;BMP280;51050;51.784;9.372;2022-09-02T07:50:59;100711.13;;;13.79
62706;BMP280;51050;51.784;9.372;2022-09-02T07:53:25;100705.56;;;13.84
62706;BMP280;51050;51.784;9.372;2022-09-02T07:55:50;100709.59;;;13.92
62706;BMP280;51050;51.784;9.372;2022-09-02T07:58:17;100710.41;;;13.92
62706;BMP280;51050;51.784;9.372;2022-09-02T08:00:43;100712.47;;;14.00
62706;BMP280;51050;51.784;9.372;2022-09-02T08:03:09;100709.94;;;14.04
62706;BMP280;51050;51.784;9.372;2022-09-02T08:05:35;100707.94;;;14.10
62706;BMP280;51050;51.784;9.372;2022-09-02T08:08:00;100718.03;;;14.14
62706;BMP280;51050;51.784;9.372;2022-09-02T08:10:26;100721.47;;;14.25
62706;BMP280;51050;51.784;9.372;2022-09-02T08:12:53;100710.69;;;14.28
62706;BMP280;51050;51.784;9.372;2022-09-02T08:15:18;100713.06;;;14.35
62706;BMP280;51050;51.784;9.372;2022-09-02T08:17:45;100712.44;;;14.38
62706;BMP280;51050;51.784;9.372;2022-09-02T08:20:10;100707.41;;;14.45
62706;BMP280;51050;51.784;9.372;2022-09-02T08:22:36;100705.66;;;14.49
62706;BMP280;51050;51.784;9.372;2022-09-02T08:25:02;100699.16;;;14.45
62706;BMP280;51050;51.784;9.372;2022-09-02T08:27:27;100699.88;;;14.51
62706;BMP280;51050;51.784;9.372;2022-09-02T08:29:52;100703.44;;;14.51
62706;BMP280;51050;51.784;9.372;2022-09-02T08:32:17;100700.28;;;14.58
62706;BMP280;51050;51.784;9.372;2022-09-02T08:34:43;100712.84;;;14.64
62706;BMP280;51050;51.784;9.372;2022-09-02T08:37:08;100702.66;;;14.64
62706;BMP280;51050;51.784;9.372;2022-09-02T08:39:33;100701.75;;;14.69
62706;BMP280;51050;51.784;9.372;2022-09-02T08:42:04;100699.94;;;14.78
62706;BMP280;51050;51.784;9.372;2022-09-02T08:44:31;100699.53;;;14.85
62706;BMP280;51050;51.784;9.372;2022-09-02T08:46:58;100692.38;;;14.97
62706;BMP280;51050;51.784;9.372;2022-09-02T08:49:30;100689.25;;;15.04
62706;BMP280;51050;51.784;9.372;2022-09-02T08:52:00;100681.97;;;15.08
62706;BMP280;51050;51.784;9.372;2022-09-02T08:56:51;100678.94;;;15.09
62706;BMP280;51050;51.784;9.372;2022-09-02T08:59:17;100676.38;;;15.13
62706;BMP280;51050;51.784;9.372;2022-09-02T09:01:47;100674.84;;;15.21
62706;BMP280;51050;51.784;9.372;2022-09-02T09:04:16;100673.00;;;15.30
62706;BMP280;51050;51.784;9.372;2022-09-02T09:09:27;100663.59;;;15.44
62706;BMP280;51050;51.784;9.372;2022-09-02T09:12:08;100664.56;;;15.76
62706;BMP280;51050;51.784;9.372;2022-09-02T09:14:51;100666.56;;;15.62
62706;BMP280;51050;51.784;9.372;2022-09-02T09:17:31;100656.19;;;15.67
62706;BMP280;51050;51.784;9.372;2022-09-02T09:19:58;100661.81;;;15.76
62706;BMP280;51050;51.784;9.372;2022-09-02T09:22:26;100661.06;;;15.84
62706;BMP280;51050;51.784;9.372;2022-09-02T09:24:53;100653.91;;;15.83
62706;BMP280;51050;51.784;9.372;2022-09-02T09:27:21;100655.53;;;15.84
62706;BMP280;51050;51.784;9.372;2022-09-02T09:29:46;100648.97;;;15.94
62706;BMP280;51050;51.784;9.372;2022-09-02T09:32:32;100653.13;;;16.05
62706;BMP280;51050;51.784;9.372;2022-09-02T09:34:59;100653.50;;;16.12
62706;BMP280;51050;51.784;9.372;2022-09-02T09:39:54;100645.13;;;16.25
62706;BMP280;51050;51.784;9.372;2022-09-02T09:42:28;100645.13;;;16.25
62706;BMP280;51050;51.784;9.372;2022-09-02T09:44:54;100642.56;;;16.29
62706;BMP280;51050;51.784;9.372;2022-09-02T09:47:20;100639.81;;;16.29
62706;BMP280;51050;51.784;9.372;2022-09-02T09:49:47;100637.88;;;16.30
62706;BMP280;51050;51.784;9.372;2022-09-02T09:52:23;100633.22;;;16.39
62706;BMP280;51050;51.784;9.372;2022-09-02T09:57:32;100628.56;;;16.48
62706;BMP280;51050;51.784;9.372;2022-09-02T09:59:58;100629.53;;;16.52
62706;BMP280;51050;51.784;9.372;2022-09-02T10:02:26;100626.66;;;16.57
62706;BMP280;51050;51.784;9.372;2022-09-02T10:04:52;100627.53;;;16.66
62706;BMP280;51050;51.784;9.372;2022-09-02T10:07:34;100622.03;;;16.66
62706;BMP280;51050;51.784;9.372;2022-09-02T10:10:19;100615.06;;;16.77
62706;BMP280;51050;51.784;9.372;2022-09-02T10:12:46;100617.81;;;16.77
62706;BMP280;51050;51.784;9.372;2022-09-02T10:15:11;100616.06;;;16.81
62706;BMP280;51050;51.784;9.372;2022-09-02T10:17:40;100617.53;;;16.87
62706;BMP280;51050;51.784;9.372;2022-09-02T10:20:11;100609.59;;;16.94
62706;BMP280;51050;51.784;9.372;2022-09-02T10:25:45;100613.53;;;17.11
62706;BMP280;51050;51.784;9.372;2022-09-02T10:33:27;100609.97;;;17.10
62706;BMP280;51050;51.784;9.372;2022-09-02T10:35:57;100601.22;;;17.17
62706;BMP280;51050;51.784;9.372;2022-09-02T10:38:26;100595.50;;;17.22
62706;BMP280;51050;51.784;9.372;2022-09-02T10:40:59;100583.31;;;17.23
62706;BMP280;51050;51.784;9.372;2022-09-02T10:46:08;100577.63;;;17.45
62706;BMP280;51050;51.784;9.372;2022-09-02T10:56:46;100574.41;;;17.60
62706;BMP280;51050;51.784;9.372;2022-09-02T10:59:20;100575.56;;;17.68
62706;BMP280;51050;51.784;9.372;2022-09-02T11:02:01;100576.38;;;17.86
62706;BMP280;51050;51.784;9.372;2022-09-02T11:04:41;100574.56;;;17.90
62706;BMP280;51050;51.784;9.372;2022-09-02T11:07:08;100577.47;;;18.19
62706;BMP280;51050;51.784;9.372;2022-09-02T11:09:39;100565.34;;;18.32
62706;BMP280;51050;51.784;9.372;2022-09-02T11:12:10;100572.81;;;18.40
62706;BMP280;51050;51.784;9.372;2022-09-02T11:14:52;100564.88;;;18.30
62706;BMP280;51050;51.784;9.372;2022-09-02T11:17:22;100558.47;;;18.38
62706;BMP280;51050;51.784;9.372;2022-09-02T11:20:04;100562.84;;;18.48
62706;BMP280;51050;51.784;9.372;2022-09-02T11:22:39;100560.75;;;18.45
62706;BMP280;51050;51.784;9.372;2022-09-02T11:25:11;100564.84;;;18.39
62706;BMP280;51050;51.784;9.372;2022-09-02T11:27:40;100552.09;;;18.46
62706;BMP280;51050;51.784;9.372;2022-09-02T11:30:08;100566.75;;;18.47
62706;BMP280;51050;51.784;9.372;2022-09-02T11:32:48;100564.34;;;18.45
62706;BMP280;51050;51.784;9.372;2022-09-02T11:35:17;100565.94;;;18.46
62706;BMP280;51050;51.784;9.372;2022-09-02T11:37:51;100561.59;;;18.45
62706;BMP280;51050;51.784;9.372;2022-09-02T11:40:34;100564.81;;;18.47
62706;BMP280;51050;51.784;9.372;2022-09-02T11:48:16;100548.00;;;18.61
62706;BMP280;51050;51.784;9.372;2022-09-02T11:50:54;100551.75;;;18.57
62706;BMP280;51050;51.784;9.372;2022-09-02T11:55:54;100551.63;;;18.44
62706;BMP280;51050;51.784;9.372;2022-09-02T12:03:27;100548.91;;;18.74
62706;BMP280;51050;51.784;9.372;2022-09-02T12:06:04;100549.19;;;19.10
62706;BMP280;51050;51.784;9.372;2022-09-02T12:11:00;100544.22;;;19.45
62706;BMP280;51050;51.784;9.372;2022-09-02T12:13:42;100540.28;;;19.67
62706;BMP280;51050;51.784;9.372;2022-09-02T12:18:37;100534.06;;;19.49
62706;BMP280;51050;51.784;9.372;2022-09-02T12:21:03;100535.25;;;19.40
62706;BMP280;51050;51.784;9.372;2022-09-02T12:26:15;100531.06;;;19.34
62706;BMP280;51050;51.784;9.372;2022-09-02T12:28:41;100521.25;;;19.36
62706;BMP280;51050;51.784;9.372;2022-09-02T12:31:10;100515.63;;;19.45
62706;BMP280;51050;51.784;9.372;2022-09-02T12:33:38;100516.19;;;19.38
62706;BMP280;51050;51.784;9.372;2022-09-02T12:36:04;100514.31;;;19.30
62706;BMP280;51050;51.784;9.372;2022-09-02T12:43:34;100510.06;;;19.65
62706;BMP280;51050;51.784;9.372;2022-09-02T12:46:10;100499.19;;;19.93
62706;BMP280;51050;51.784;9.372;2022-09-02T12:48:42;100499.56;;;20.16
62706;BMP280;51050;51.784;9.372;2022-09-02T12:51:09;100494.50;;;20.18
62706;BMP280;51050;51.784;9.372;2022-09-02T12:53:41;100492.75;;;20.26
62706;BMP280;51050;51.784;9.372;2022-09-02T12:56:20;100489.09;;;20.34
62706;BMP280;51050;51.784;9.372;2022-09-02T12:58:48;100490.94;;;20.30
62706;BMP280;51050;51.784;9.372;2022-09-02T13:01:24;100487.00;;;20.31
62706;BMP280;51050;51.784;9.372;2022-09-02T13:04:00;100478.78;;;20.34
62706;BMP280;51050;51.784;9.372;2022-09-02T13:06:33;100488.16;;;20.91
62706;BMP280;51050;51.784;9.372;2022-09-02T13:09:07;100491.25;;;21.01
62706;BMP280;51050;51.784;9.372;2022-09-02T13:14:38;100484.91;;;20.28
62706;BMP280;51050;51.784;9.372;2022-09-02T13:17:19;100470.56;;;20.50
62706;BMP280;51050;51.784;9.372;2022-09-02T13:19:48;100472.53;;;20.62
62706;BMP280;51050;51.784;9.372;2022-09-02T13:24:50;100472.34;;;20.10
62706;BMP280;51050;51.784;9.372;2022-09-02T13:27:32;100468.44;;;20.11
62706;BMP280;51050;51.784;9.372;2022-09-02T13:30:17;100472.84;;;20.12
62706;BMP280;51050;51.784;9.372;2022-09-02T13:32:43;100465.19;;;20.09
62706;BMP280;51050;51.784;9.372;2022-09-02T13:35:16;100465.88;;;20.06
62706;BMP280;51050;51.784;9.372;2022-09-02T13:37:42;100465.66;;;19.98
62706;BMP280;51050;51.784;9.372;2022-09-02T13:40:18;100468.53;;;19.90
62706;BMP280;51050;51.784;9.372;2022-09-02T13:42:50;100468.69;;;19.73
62706;BMP280;51050;51.784;9.372;2022-09-02T13:45:17;100461.38;;;19.56
62706;BMP280;51050;51.784;9.372;2022-09-02T13:47:43;100458.72;;;19.39
62706;BMP280;51050;51.784;9.372;2022-09-02T13:50:09;100458.91;;;19.34
62706;BMP280;51050;51.784;9.372;2022-09-02T13:52:36;100461.41;;;19.26
62706;BMP280;51050;51.784;9.372;2022-09-02T13:55:02;100459.72;;;19.34
62706;BMP280;51050;51.784;9.372;2022-09-02T13:57:28;100461.28;;;19.64
62706;BMP280;51050;51.784;9.372;2022-09-02T13:59:55;100455.88;;;19.92
62706;BMP280;51050;51.784;9.372;2022-09-02T14:02:25;100449.88;;;19.90
62706;BMP280;51050;51.784;9.372;2022-09-02T14:04:52;100451.47;;;19.91
62706;BMP280;51050;51.784;9.372;2022-09-02T14:07:22;100439.00;;;20.10
62706;BMP280;51050;51.784;9.372;2022-09-02T14:09:48;100440.66;;;20.23
62706;BMP280;51050;51.784;9.372;2022-09-02T14:12:14;100439.19;;;20.50
62706;BMP280;51050;51.784;9.372;2022-09-02T14:14:40;100433.38;;;20.67
62706;BMP280;51050;51.784;9.372;2022-09-02T14:17:18;100424.22;;;20.54
62706;BMP280;51050;51.784;9.372;2022-09-02T14:19:45;100424.00;;;20.47
62706;BMP280;51050;51.784;9.372;2022-09-02T14:22:24;100424.59;;;20.41
62706;BMP280;51050;51.784;9.372;2022-09-02T14:24:50;100424.69;;;20.32
62706;BMP280;51050;51.784;9.372;2022-09-02T14:27:21;100428.72;;;20.22
62706;BMP280;51050;51.784;9.372;2022-09-02T14:29:50;100418.88;;;20.13
62706;BMP280;51050;51.784;9.372;2022-09-02T14:32:21;100414.94;;;20.14
62706;BMP280;51050;51.784;9.372;2022-09-02T14:34:47;100418.28;;;20.19
62706;BMP280;51050;51.784;9.372;2022-09-02T14:40:17;100423.88;;;20.31
62706;BMP280;51050;51.784;9.372;2022-09-02T14:42:42;100414.72;;;20.31
62706;BMP280;51050;51.784;9.372;2022-09-02T14:45:08;100410.91;;;20.23
62706;BMP280;51050;51.784;9.372;2022-09-02T14:47:37;100413.47;;;20.41
62706;BMP280;51050;51.784;9.372;2022-09-02T14:50:04;100403.38;;;20.48
62706;BMP280;51050;51.784;9.372;2022-09-02T14:52:33;100402.91;;;20.46
62706;BMP280;51050;51.784;9.372;2022-09-02T14:55:00;100407.09;;;20.40
62706;BMP280;51050;51.784;9.372;2022-09-02T14:57:27;100401.75;;;20.35
62706;BMP280;51050;51.784;9.372;2022-09-02T14:59:54;100399.78;;;20.35
62706;BMP280;51050;51.784;9.372;2022-09-02T15:02:23;100404.84;;;20.33
62706;BMP280;51050;51.784;9.372;2022-09-02T15:04:52;100400.94;;;20.34